TimeCDT,TemperatureF,Dew PointF,Humidity,Sea Level PressureIn,VisibilityMPH,Wind Direction,Wind SpeedMPH,Gust SpeedMPH,PrecipitationIn,Events,Conditions,WindDirDegrees,DateUTC
12:15 AM,80.6,75.0,83,29.87,10.0,SSE,11.5,-,N/A,,Clear,160,2012-10-21 05:15:00
12:35 AM,80.6,74.8,83,29.86,10.0,SSE,11.5,-,N/A,,Clear,160,2012-10-21 05:35:00
12:55 AM,80.6,74.7,82,29.86,10.0,South,11.5,-,N/A,,Clear,170,2012-10-21 05:55:00
1:15 AM,80.4,74.5,82,29.86,10.0,South,9.2,-,N/A,,Clear,170,2012-10-21 06:15:00
1:35 AM,80.2,74.8,84,29.86,10.0,SSE,10.4,-,N/A,,Clear,160,2012-10-21 06:35:00
1:55 AM,80.2,75.2,85,29.86,10.0,SSE,12.7,19.6,N/A,,Clear,160,2012-10-21 06:55:00
2:15 AM,80.2,75.0,84,29.86,10.0,South,11.5,-,N/A,,Clear,170,2012-10-21 07:15:00
2:35 AM,80.1,74.8,84,29.86,10.0,South,10.4,-,N/A,,Clear,170,2012-10-21 07:35:00
2:55 AM,79.9,74.8,85,29.86,10.0,South,10.4,-,N/A,,Clear,170,2012-10-21 07:55:00
3:15 AM,79.7,74.7,84,29.86,10.0,South,8.1,-,N/A,,Clear,170,2012-10-21 08:15:00
3:35 AM,79.7,74.7,84,29.86,10.0,South,10.4,-,N/A,,Scattered Clouds,170,2012-10-21 08:35:00
3:55 AM,79.7,74.7,84,29.86,10.0,South,9.2,-,N/A,,Clear,170,2012-10-21 08:55:00
4:15 AM,79.7,74.8,85,29.86,10.0,South,9.2,-,N/A,,Clear,170,2012-10-21 09:15:00
4:35 AM,79.3,74.8,86,29.86,10.0,South,9.2,-,N/A,,Clear,170,2012-10-21 09:35:00
4:55 AM,79.2,74.8,87,29.87,10.0,South,6.9,-,N/A,,Clear,170,2012-10-21 09:55:00
5:15 AM,79.0,74.8,87,29.87,10.0,South,6.9,-,N/A,,Clear,170,2012-10-21 10:15:00
5:35 AM,78.8,74.8,88,29.87,10.0,SSE,6.9,-,N/A,,Clear,160,2012-10-21 10:35:00
5:55 AM,78.6,74.7,88,29.87,10.0,SSE,5.8,-,N/A,,Clear,160,2012-10-21 10:55:00
6:15 AM,78.1,74.5,89,29.88,10.0,SSE,5.8,-,N/A,,Clear,160,2012-10-21 11:15:00
6:35 AM,78.4,74.8,89,29.88,10.0,South,6.9,-,N/A,,Scattered Clouds,170,2012-10-21 11:35:00
6:55 AM,78.6,75.0,89,29.89,10.0,South,5.8,-,N/A,,Scattered Clouds,170,2012-10-21 11:55:00
7:15 AM,78.3,74.8,89,29.89,7.0,SSE,5.8,-,N/A,,Clear,160,2012-10-21 12:15:00
7:35 AM,78.1,74.8,90,29.90,5.0,South,5.8,-,N/A,,Clear,170,2012-10-21 12:35:00
7:55 AM,78.3,75.2,90,29.90,5.0,SSE,5.8,-,N/A,,Clear,160,2012-10-21 12:55:00
8:15 AM,78.8,75.6,90,29.91,7.0,South,8.1,-,N/A,,Clear,170,2012-10-21 13:15:00
8:35 AM,80.6,76.1,86,29.91,10.0,South,8.1,-,N/A,,Clear,170,2012-10-21 13:35:00
8:55 AM,82.2,76.1,82,29.92,10.0,SSE,9.2,-,N/A,,Clear,160,2012-10-21 13:55:00
9:15 AM,83.5,75.4,76,29.93,10.0,South,12.7,17.3,N/A,,Clear,170,2012-10-21 14:15:00
9:55 AM,85.3,74.5,70,29.94,10.0,South,17.3,21.9,N/A,,Clear,170,2012-10-21 14:55:00
10:15 AM,86.0,74.3,68,29.94,10.0,SSE,16.1,-,N/A,,Clear,160,2012-10-21 15:15:00
11:15 AM,88.0,73.8,63,29.94,10.0,South,17.3,25.3,N/A,,Scattered Clouds,170,2012-10-21 16:15:00
11:55 AM,88.0,73.9,63,29.94,10.0,SSE,15.0,23.0,N/A,,Scattered Clouds,160,2012-10-21 16:55:00
12:15 PM,87.6,73.4,63,29.94,10.0,SSE,19.6,26.5,N/A,,Mostly Cloudy,150,2012-10-21 17:15:00
12:35 PM,88.0,73.9,63,29.93,10.0,SSE,19.6,26.5,N/A,,Scattered Clouds,150,2012-10-21 17:35:00
12:55 PM,88.5,73.8,61,29.92,10.0,SSE,20.7,27.6,N/A,,Scattered Clouds,160,2012-10-21 17:55:00
1:15 PM,89.1,73.8,60,29.92,10.0,South,20.7,28.8,N/A,,Scattered Clouds,170,2012-10-21 18:15:00
1:35 PM,88.9,73.4,60,29.92,10.0,SSE,20.7,26.5,N/A,,Scattered Clouds,150,2012-10-21 18:35:00
1:55 PM,88.7,73.2,60,29.90,10.0,SSE,21.9,29.9,N/A,,Clear,150,2012-10-21 18:55:00
2:15 PM,88.3,72.9,60,29.89,10.0,SSE,21.9,26.5,N/A,,Clear,160,2012-10-21 19:15:00
2:35 PM,88.5,72.9,60,29.89,10.0,SSE,19.6,26.5,N/A,,Clear,150,2012-10-21 19:35:00
2:55 PM,88.3,72.9,60,29.88,10.0,SSE,20.7,28.8,N/A,,Clear,150,2012-10-21 19:55:00
3:35 PM,88.3,73.2,61,29.88,10.0,SE,21.9,27.6,N/A,,Scattered Clouds,140,2012-10-21 20:35:00
3:55 PM,87.8,73.2,62,29.87,10.0,SSE,23.0,28.8,N/A,,Clear,150,2012-10-21 20:55:00
4:15 PM,87.4,72.7,61,29.87,10.0,SE,20.7,29.9,N/A,,Clear,140,2012-10-21 21:15:00
4:35 PM,86.9,73.2,64,29.87,10.0,SSE,21.9,27.6,N/A,,Clear,150,2012-10-21 21:35:00
4:55 PM,86.4,73.4,65,29.88,10.0,SSE,21.9,27.6,N/A,,Clear,150,2012-10-21 21:55:00
5:55 PM,84.7,73.2,68,29.88,10.0,SSE,19.6,24.2,N/A,,Clear,150,2012-10-21 22:55:00
6:15 PM,84.0,73.4,70,29.88,10.0,SSE,15.0,25.3,N/A,,Clear,150,2012-10-21 23:15:00
6:35 PM,83.1,73.8,73,29.88,10.0,SE,13.8,18.4,N/A,,Clear,140,2012-10-21 23:35:00
6:55 PM,82.0,74.3,77,29.88,10.0,SE,11.5,17.3,N/A,,Clear,140,2012-10-21 23:55:00
7:15 PM,81.5,75.4,82,29.89,10.0,SE,10.4,18.4,N/A,,Clear,140,2012-10-22 00:15:00
7:35 PM,81.0,76.1,85,29.89,10.0,SE,10.4,-,N/A,,Clear,140,2012-10-22 00:35:00
7:55 PM,80.8,75.9,85,29.90,10.0,SE,10.4,-,N/A,,Clear,140,2012-10-22 00:55:00
8:35 PM,80.8,75.9,85,29.90,10.0,SE,11.5,-,N/A,,Clear,140,2012-10-22 01:35:00
8:55 PM,80.6,75.6,85,29.90,10.0,SE,12.7,17.3,N/A,,Clear,140,2012-10-22 01:55:00
9:35 PM,80.6,76.1,86,29.92,10.0,SE,12.7,17.3,N/A,,Clear,140,2012-10-22 02:35:00
9:55 PM,80.8,76.5,87,29.92,10.0,SE,10.4,-,N/A,,Scattered Clouds,140,2012-10-22 02:55:00
10:15 PM,80.8,76.6,87,29.93,10.0,SE,11.5,-,N/A,,Scattered Clouds,140,2012-10-22 03:15:00
10:35 PM,80.6,76.3,87,29.92,10.0,SE,9.2,-,N/A,,Scattered Clouds,140,2012-10-22 03:35:00
11:15 PM,80.6,76.3,87,29.92,10.0,SE,9.2,16.1,N/A,,Clear,140,2012-10-22 04:15:00
11:35 PM,80.6,76.1,86,29.92,10.0,SSE,10.4,-,N/A,,Scattered Clouds,150,2012-10-22 04:35:00
11:55 PM,80.8,76.1,86,29.92,10.0,SSE,9.2,-,N/A,,Scattered Clouds,150,2012-10-22 04:55:00